Dripping Springs, Texas
Current Conditions -  °F | °C
As of 5:51 PM on Monday 20 Oct 2014 (Local Time) from KATT Reporting Station
Few Clouds Few Clouds  
Wind Chill: 79°   Ceiling: Unl
Heat Index: 80°   Visibility: 10mi
Dew Point: 59°   Wind: 5mph
Humidity: 50%   Direction: 60°ENE
Pressure: 30"   Gusts: NA
Location:  30.19°N, 98.09°W
Report Text: KATT 202251Z AUTO 06004KT 10SM FEW050 26/15 A3000 RMK AO2 SLP150 T02610150
Loading
Personal Weather Stations






























Interactive Weather Map
Tropical Storm Tracking
New forecast layout! Learn more

10-Day Weather Forecast

Advertisements
Track Severe Weather on mobile